General Aviation Weather

Text Reports

Enter one or more of the following location identifiers separated by a space:

Zip Code, Four-Character ICAO or Three-Character IATA airport codes.

METAR - Aviation Routine Weather Report
KOXV - Knoxville, Iowa
Updated at 8:55 PM GMT on December 28, 2014 (2:55 PM CST):
METAR KOXV 282055Z AUTO 22007KT 10SM CLR 02/M06 A3012 RMK AO2
TAF - Terminal Area Forecast
KOXV - Knoxville, Iowa
Updated at 8:55 PM GMT on December 28, 2014 (2:55 PM CST):
No TAF is currently available for this location.
Decoded:
No decoded TAF is available.
PIREP - Pilot Weather Report
KOXV - Knoxville, Iowa
Updated at 8:55 PM GMT on December 28, 2014 (2:55 PM CST):
No PIREP is currently available for this location.
AIRMET - Airmens Meteorological Information
KOXV - Knoxville, Iowa
Updated at 8:55 PM GMT on December 28, 2014 (2:55 PM CST):
No AIRMET is currently available for this location.
SIGMET - Significant Meteorological Information
KOXV - Knoxville, Iowa
Updated at 8:55 PM GMT on December 28, 2014 (2:55 PM CST):
No SIGMET is currently available for this location.
NOTAM - Notice to Airmen
KOXV - Knoxville, Iowa
Updated at 8:55 PM GMT on December 28, 2014 (2:55 PM CST):
No NOTAM is currently available for this location.
Forecast Area
KOXV - Knoxville, Iowa
Updated at 8:55 PM GMT on December 28, 2014 (2:55 PM CST):
No NOTAM is currently available for this location.
Aviation Weather Maps